sensor_id;sensor_type;location;lat;lon;timestamp;pressure;altitude;pressure_sealevel;temperature;humidity
20656;BME280;10487;53.320;8.672;2023-02-14T00:02:27;103451.16;;;2.26;63.50
20656;BME280;10487;53.320;8.672;2023-02-14T00:05:28;103459.94;;;2.25;63.62
20656;BME280;10487;53.320;8.672;2023-02-14T00:08:30;103452.03;;;2.24;63.72
20656;BME280;10487;53.320;8.672;2023-02-14T00:11:32;103449.41;;;2.24;63.64
20656;BME280;10487;53.320;8.672;2023-02-14T00:14:33;103447.66;;;2.24;63.93
20656;BME280;10487;53.320;8.672;2023-02-14T00:17:55;103437.97;;;2.25;63.59
20656;BME280;10487;53.320;8.672;2023-02-14T00:21:00;103444.13;;;2.24;63.79
20656;BME280;10487;53.320;8.672;2023-02-14T00:24:04;103448.50;;;2.25;63.79
20656;BME280;10487;53.320;8.672;2023-02-14T00:27:06;103443.25;;;2.23;63.95
20656;BME280;10487;53.320;8.672;2023-02-14T00:30:08;103440.59;;;2.23;63.74
20656;BME280;10487;53.320;8.672;2023-02-14T00:33:11;103441.50;;;2.24;64.07
20656;BME280;10487;53.320;8.672;2023-02-14T00:36:13;103430.97;;;2.27;63.88
20656;BME280;10487;53.320;8.672;2023-02-14T00:39:15;103438.00;;;2.29;64.12
20656;BME280;10487;53.320;8.672;2023-02-14T00:42:17;103431.88;;;2.32;63.92
20656;BME280;10487;53.320;8.672;2023-02-14T00:45:19;103433.59;;;2.33;63.80
20656;BME280;10487;53.320;8.672;2023-02-14T00:48:20;103433.63;;;2.34;63.79
20656;BME280;10487;53.320;8.672;2023-02-14T00:51:22;103431.88;;;2.32;63.80
20656;BME280;10487;53.320;8.672;2023-02-14T00:54:24;103435.38;;;2.31;63.95
20656;BME280;10487;53.320;8.672;2023-02-14T00:57:26;103437.13;;;2.30;63.94
20656;BME280;10487;53.320;8.672;2023-02-14T01:00:27;103440.66;;;2.34;64.07
20656;BME280;10487;53.320;8.672;2023-02-14T01:03:29;103441.53;;;2.34;64.09
20656;BME280;10487;53.320;8.672;2023-02-14T01:06:31;103445.06;;;2.36;64.20
20656;BME280;10487;53.320;8.672;2023-02-14T01:09:32;103442.41;;;2.38;64.10
20656;BME280;10487;53.320;8.672;2023-02-14T01:12:34;103426.63;;;2.39;64.20
20656;BME280;10487;53.320;8.672;2023-02-14T01:15:41;103436.25;;;2.40;64.38
20656;BME280;10487;53.320;8.672;2023-02-14T01:18:43;103424.84;;;2.41;64.26
20656;BME280;10487;53.320;8.672;2023-02-14T01:21:45;103423.13;;;2.42;64.19
20656;BME280;10487;53.320;8.672;2023-02-14T01:24:47;103416.06;;;2.42;64.15
20656;BME280;10487;53.320;8.672;2023-02-14T01:27:48;103419.59;;;2.41;64.35
20656;BME280;10487;53.320;8.672;2023-02-14T01:30:50;103414.31;;;2.41;64.38
20656;BME280;10487;53.320;8.672;2023-02-14T01:33:52;103411.69;;;2.41;64.08
20656;BME280;10487;53.320;8.672;2023-02-14T01:36:54;103423.13;;;2.42;64.25
20656;BME280;10487;53.320;8.672;2023-02-14T01:39:56;103416.06;;;2.42;64.17
20656;BME280;10487;53.320;8.672;2023-02-14T01:42:57;103413.44;;;2.41;64.18
20656;BME280;10487;53.320;8.672;2023-02-14T01:45:59;103416.06;;;2.42;64.15
20656;BME280;10487;53.320;8.672;2023-02-14T01:49:14;103415.19;;;2.45;64.24
20656;BME280;10487;53.320;8.672;2023-02-14T01:52:21;103418.69;;;2.47;64.22
20656;BME280;10487;53.320;8.672;2023-02-14T01:55:28;103408.19;;;2.48;64.30
20656;BME280;10487;53.320;8.672;2023-02-14T01:58:31;103409.91;;;2.49;64.57
20656;BME280;10487;53.320;8.672;2023-02-14T02:01:37;103409.91;;;2.49;64.19
20656;BME280;10487;53.320;8.672;2023-02-14T02:04:43;103413.44;;;2.50;64.38
20656;BME280;10487;53.320;8.672;2023-02-14T02:07:46;103394.09;;;2.49;64.31
20656;BME280;10487;53.320;8.672;2023-02-14T02:10:47;103399.38;;;2.49;64.63
20656;BME280;10487;53.320;8.672;2023-02-14T02:13:49;103389.72;;;2.50;64.42
20656;BME280;10487;53.320;8.672;2023-02-14T02:24:04;103380.03;;;2.44;64.42
20656;BME280;10487;53.320;8.672;2023-02-14T02:41:17;103374.75;;;2.22;64.17
20656;BME280;10487;53.320;8.672;2023-02-14T02:44:33;103382.63;;;2.15;64.32
20656;BME280;10487;53.320;8.672;2023-02-14T02:51:09;103380.84;;;2.05;64.59
20656;BME280;10487;53.320;8.672;2023-02-14T02:54:59;103386.09;;;1.96;64.27
20656;BME280;10487;53.320;8.672;2023-02-14T02:58:03;103377.25;;;1.88;64.33
20656;BME280;10487;53.320;8.672;2023-02-14T03:01:12;103379.00;;;1.82;64.10
20656;BME280;10487;53.320;8.672;2023-02-14T03:04:15;103378.09;;;1.78;64.48
20656;BME280;10487;53.320;8.672;2023-02-14T03:07:37;103378.09;;;1.74;64.42
20656;BME280;10487;53.320;8.672;2023-02-14T03:10:40;103369.28;;;1.69;64.59
20656;BME280;10487;53.320;8.672;2023-02-14T03:26:31;103368.28;;;1.42;64.18
20656;BME280;10487;53.320;8.672;2023-02-14T03:29:56;103372.66;;;1.39;64.28
20656;BME280;10487;53.320;8.672;2023-02-14T03:33:12;103359.44;;;1.33;64.38
20656;BME280;10487;53.320;8.672;2023-02-14T03:36:24;103356.78;;;1.28;64.36
20656;BME280;10487;53.320;8.672;2023-02-14T03:39:46;103348.88;;;1.24;64.24
20656;BME280;10487;53.320;8.672;2023-02-14T03:42:59;103350.59;;;1.17;64.31
20656;BME280;10487;53.320;8.672;2023-02-14T03:46:10;103349.69;;;1.12;64.49
20656;BME280;10487;53.320;8.672;2023-02-14T03:49:18;103345.25;;;1.07;64.16
20656;BME280;10487;53.320;8.672;2023-02-14T03:52:23;103353.13;;;1.02;64.28
20656;BME280;10487;53.320;8.672;2023-02-14T03:55:33;103345.22;;;0.99;64.37
20656;BME280;10487;53.320;8.672;2023-02-14T03:58:39;103345.16;;;0.93;64.61
20656;BME280;10487;53.320;8.672;2023-02-14T04:01:53;103343.34;;;0.86;64.50
20656;BME280;10487;53.320;8.672;2023-02-14T04:04:57;103342.41;;;0.81;64.65
20656;BME280;10487;53.320;8.672;2023-02-14T04:08:00;103337.16;;;0.78;64.40
20656;BME280;10487;53.320;8.672;2023-02-14T04:11:02;103335.38;;;0.77;64.55
20656;BME280;10487;53.320;8.672;2023-02-14T04:14:05;103331.81;;;0.73;64.64
20656;BME280;10487;53.320;8.672;2023-02-14T04:17:07;103334.47;;;0.70;64.62
20656;BME280;10487;53.320;8.672;2023-02-14T04:20:28;103331.78;;;0.67;64.42
20656;BME280;10487;53.320;8.672;2023-02-14T04:23:30;103320.38;;;0.64;64.41
20656;BME280;10487;53.320;8.672;2023-02-14T04:26:32;103327.38;;;0.62;64.57
20656;BME280;10487;53.320;8.672;2023-02-14T04:29:55;103329.06;;;0.57;64.44
20656;BME280;10487;53.320;8.672;2023-02-14T04:32:55;103320.28;;;0.50;64.63
20656;BME280;10487;53.320;8.672;2023-02-14T04:35:58;103321.97;;;0.47;64.57
20656;BME280;10487;53.320;8.672;2023-02-14T04:38:59;103317.56;;;0.43;64.55
20656;BME280;10487;53.320;8.672;2023-02-14T04:42:01;103315.81;;;0.42;64.62
20656;BME280;10487;53.320;8.672;2023-02-14T04:45:03;103321.03;;;0.39;64.49
20656;BME280;10487;53.320;8.672;2023-02-14T04:48:04;103318.34;;;0.34;64.36
20656;BME280;10487;53.320;8.672;2023-02-14T04:51:06;103320.06;;;0.29;64.50
20656;BME280;10487;53.320;8.672;2023-02-14T04:54:08;103310.41;;;0.27;64.62
20656;BME280;10487;53.320;8.672;2023-02-14T04:57:09;103300.75;;;0.24;64.36
20656;BME280;10487;53.320;8.672;2023-02-14T05:00:11;103310.38;;;0.22;64.52
20656;BME280;10487;53.320;8.672;2023-02-14T05:03:13;103299.81;;;0.17;64.47
20656;BME280;10487;53.320;8.672;2023-02-14T05:06:15;103294.53;;;0.13;64.38
20656;BME280;10487;53.320;8.672;2023-02-14T05:09:16;103297.13;;;0.11;64.39
20656;BME280;10487;53.320;8.672;2023-02-14T05:12:18;103296.25;;;0.09;64.73
20656;BME280;10487;53.320;8.672;2023-02-14T05:15:19;103290.94;;;0.05;64.34
20656;BME280;10487;53.320;8.672;2023-02-14T05:18:21;103285.63;;;-0.03;64.65
20656;BME280;10487;53.320;8.672;2023-02-14T05:21:23;103279.44;;;-0.09;64.63
20656;BME280;10487;53.320;8.672;2023-02-14T05:24:24;103278.50;;;-0.14;64.37
20656;BME280;10487;53.320;8.672;2023-02-14T05:27:26;103277.53;;;-0.21;64.42
20656;BME280;10487;53.320;8.672;2023-02-14T05:30:27;103280.13;;;-0.25;64.42
20656;BME280;10487;53.320;8.672;2023-02-14T05:33:30;103278.34;;;-0.28;64.71
20656;BME280;10487;53.320;8.672;2023-02-14T05:36:32;103280.06;;;-0.30;64.74
20656;BME280;10487;53.320;8.672;2023-02-14T05:39:34;103274.84;;;-0.28;64.63
20656;BME280;10487;53.320;8.672;2023-02-14T05:42:35;103271.34;;;-0.26;64.63
20656;BME280;10487;53.320;8.672;2023-02-14T05:45:37;103270.50;;;-0.23;64.52
20656;BME280;10487;53.320;8.672;2023-02-14T05:48:39;103276.69;;;-0.21;64.75
20656;BME280;10487;53.320;8.672;2023-02-14T05:51:40;103278.44;;;-0.20;64.70
20656;BME280;10487;53.320;8.672;2023-02-14T05:54:42;103274.06;;;-0.21;64.52
20656;BME280;10487;53.320;8.672;2023-02-14T05:57:43;103276.59;;;-0.26;64.36
20656;BME280;10487;53.320;8.672;2023-02-14T06:00:45;103287.06;;;-0.32;64.56
20656;BME280;10487;53.320;8.672;2023-02-14T06:03:46;103283.47;;;-0.38;64.42
20656;BME280;10487;53.320;8.672;2023-02-14T06:06:48;103288.69;;;-0.40;64.51
20656;BME280;10487;53.320;8.672;2023-02-14T06:09:50;103294.78;;;-0.43;64.64
20656;BME280;10487;53.320;8.672;2023-02-14T06:12:52;103291.28;;;-0.43;64.64
20656;BME280;10487;53.320;8.672;2023-02-14T06:15:54;103299.16;;;-0.43;64.66
20656;BME280;10487;53.320;8.672;2023-02-14T06:18:55;103293.06;;;-0.42;64.76
20656;BME280;10487;53.320;8.672;2023-02-14T06:21:57;103293.19;;;-0.28;65.40
20656;BME280;10487;53.320;8.672;2023-02-14T06:24:58;103301.81;;;0.43;66.66
20656;BME280;10487;53.320;8.672;2023-02-14T06:28:00;103294.16;;;0.76;65.58
20656;BME280;10487;53.320;8.672;2023-02-14T06:31:01;103295.06;;;0.75;64.86
20656;BME280;10487;53.320;8.672;2023-02-14T06:34:03;103300.22;;;0.66;64.45
20656;BME280;10487;53.320;8.672;2023-02-14T06:37:06;103299.28;;;0.56;64.60
20656;BME280;10487;53.320;8.672;2023-02-14T06:40:08;103291.34;;;0.49;64.51
20656;BME280;10487;53.320;8.672;2023-02-14T06:43:10;103293.03;;;0.42;64.62
20656;BME280;10487;53.320;8.672;2023-02-14T06:46:12;103291.25;;;0.35;64.41
20656;BME280;10487;53.320;8.672;2023-02-14T06:49:13;103296.41;;;0.28;64.40
20656;BME280;10487;53.320;8.672;2023-02-14T06:52:15;103300.72;;;0.21;64.68
20656;BME280;10487;53.320;8.672;2023-02-14T06:55:17;103298.03;;;0.13;64.65
20656;BME280;10487;53.320;8.672;2023-02-14T06:58:19;103292.72;;;0.07;64.51
20656;BME280;10487;53.320;8.672;2023-02-14T07:01:21;103296.16;;;0.00;64.62
20656;BME280;10487;53.320;8.672;2023-02-14T07:04:22;103295.19;;;-0.06;64.77
20656;BME280;10487;53.320;8.672;2023-02-14T07:07:24;103299.50;;;-0.13;64.58
20656;BME280;10487;53.320;8.672;2023-02-14T07:10:25;103293.31;;;-0.18;64.61
20656;BME280;10487;53.320;8.672;2023-02-14T07:13:27;103292.44;;;-0.20;64.68
20656;BME280;10487;53.320;8.672;2023-02-14T07:16:29;103298.53;;;-0.22;64.71
20656;BME280;10487;53.320;8.672;2023-02-14T07:19:30;103288.91;;;-0.22;64.97
20656;BME280;10487;53.320;8.672;2023-02-14T07:22:32;103289.81;;;-0.21;64.79
20656;BME280;10487;53.320;8.672;2023-02-14T07:25:34;103281.94;;;-0.20;64.74
20656;BME280;10487;53.320;8.672;2023-02-14T07:28:35;103277.53;;;-0.21;64.63
20656;BME280;10487;53.320;8.672;2023-02-14T07:31:37;103274.91;;;-0.21;64.73
20656;BME280;10487;53.320;8.672;2023-02-14T07:34:39;103281.97;;;-0.17;64.91
20656;BME280;10487;53.320;8.672;2023-02-14T07:37:40;103272.41;;;-0.12;64.97
20656;BME280;10487;53.320;8.672;2023-02-14T07:40:42;103267.19;;;-0.06;64.64
20656;BME280;10487;53.320;8.672;2023-02-14T07:43:44;103272.53;;;0.02;64.53
20656;BME280;10487;53.320;8.672;2023-02-14T07:46:45;103269.97;;;0.08;64.71
20656;BME280;10487;53.320;8.672;2023-02-14T07:49:47;103259.50;;;0.14;64.75
20656;BME280;10487;53.320;8.672;2023-02-14T07:52:49;103273.59;;;0.22;64.82
20656;BME280;10487;53.320;8.672;2023-02-14T07:55:51;103267.53;;;0.29;64.80
20656;BME280;10487;53.320;8.672;2023-02-14T07:58:53;103269.34;;;0.36;64.64
20656;BME280;10487;53.320;8.672;2023-02-14T08:01:55;103278.16;;;0.43;64.63
20656;BME280;10487;53.320;8.672;2023-02-14T08:04:56;103279.97;;;0.48;64.64
20656;BME280;10487;53.320;8.672;2023-02-14T08:07:58;103273.88;;;0.57;64.83
20656;BME280;10487;53.320;8.672;2023-02-14T08:11:00;103277.47;;;0.66;64.61
20656;BME280;10487;53.320;8.672;2023-02-14T08:14:03;103278.44;;;0.77;64.61
20656;BME280;10487;53.320;8.672;2023-02-14T08:17:05;103287.28;;;0.87;64.89
20656;BME280;10487;53.320;8.672;2023-02-14T08:20:08;103278.59;;;0.97;64.74
20656;BME280;10487;53.320;8.672;2023-02-14T08:23:10;103281.25;;;1.06;64.84
20656;BME280;10487;53.320;8.672;2023-02-14T08:26:11;103289.19;;;1.14;64.85
20656;BME280;10487;53.320;8.672;2023-02-14T08:29:13;103280.47;;;1.21;64.65
20656;BME280;10487;53.320;8.672;2023-02-14T08:32:17;103291.03;;;1.28;64.51
20656;BME280;10487;53.320;8.672;2023-02-14T08:35:21;103284.06;;;1.36;64.82
20656;BME280;10487;53.320;8.672;2023-02-14T08:38:26;103284.97;;;1.44;64.53
20656;BME280;10487;53.320;8.672;2023-02-14T08:41:27;103278.84;;;1.51;64.86
20656;BME280;10487;53.320;8.672;2023-02-14T08:44:29;103282.38;;;1.57;64.88
20656;BME280;10487;53.320;8.672;2023-02-14T08:47:31;103292.06;;;1.62;64.78
20656;BME280;10487;53.320;8.672;2023-02-14T08:50:38;103292.94;;;1.69;64.75
20656;BME280;10487;53.320;8.672;2023-02-14T08:53:41;103285.94;;;1.71;64.80
20656;BME280;10487;53.320;8.672;2023-02-14T08:56:43;103278.91;;;1.76;64.71
20656;BME280;10487;53.320;8.672;2023-02-14T08:59:44;103285.09;;;1.81;64.46
20656;BME280;10487;53.320;8.672;2023-02-14T09:02:49;103281.56;;;1.85;64.53
20656;BME280;10487;53.320;8.672;2023-02-14T09:05:51;103278.94;;;1.88;64.56
20656;BME280;10487;53.320;8.672;2023-02-14T09:08:53;103276.34;;;1.94;64.48
20656;BME280;10487;53.320;8.672;2023-02-14T09:11:55;103279.88;;;1.99;64.80
20656;BME280;10487;53.320;8.672;2023-02-14T09:14:57;103269.34;;;2.02;64.96
20656;BME280;10487;53.320;8.672;2023-02-14T09:17:59;103279.88;;;2.09;64.77
20656;BME280;10487;53.320;8.672;2023-02-14T09:21:05;103270.22;;;2.14;64.91
20656;BME280;10487;53.320;8.672;2023-02-14T09:24:07;103270.22;;;2.21;64.60
20656;BME280;10487;53.320;8.672;2023-02-14T09:27:08;103262.34;;;2.27;64.89
20656;BME280;10487;53.320;8.672;2023-02-14T09:30:11;103259.69;;;2.34;64.84
20656;BME280;10487;53.320;8.672;2023-02-14T09:33:13;103257.91;;;2.42;64.71
20656;BME280;10487;53.320;8.672;2023-02-14T09:36:14;103262.31;;;2.52;64.68
20656;BME280;10487;53.320;8.672;2023-02-14T09:39:35;103261.44;;;2.64;64.90
20656;BME280;10487;53.320;8.672;2023-02-14T09:42:43;103270.19;;;2.76;64.77
20656;BME280;10487;53.320;8.672;2023-02-14T09:45:50;103256.13;;;2.85;64.66
20656;BME280;10487;53.320;8.672;2023-02-14T09:48:53;103260.47;;;2.97;64.86
20656;BME280;10487;53.320;8.672;2023-02-14T09:51:56;103262.22;;;3.07;64.81
20656;BME280;10487;53.320;8.672;2023-02-14T09:55:02;103256.88;;;3.19;64.87
20656;BME280;10487;53.320;8.672;2023-02-14T09:58:14;103255.13;;;3.30;64.71
20656;BME280;10487;53.320;8.672;2023-02-14T10:01:24;103259.50;;;3.40;64.56
20656;BME280;10487;53.320;8.672;2023-02-14T10:04:37;103258.56;;;3.50;64.86
20656;BME280;10487;53.320;8.672;2023-02-14T10:11:11;103258.22;;;4.07;65.20
20656;BME280;10487;53.320;8.672;2023-02-14T10:14:22;103259.00;;;4.19;64.84
20656;BME280;10487;53.320;8.672;2023-02-14T10:17:47;103263.34;;;4.27;64.70
20656;BME280;10487;53.320;8.672;2023-02-14T10:20:57;103258.91;;;4.32;64.58
20656;BME280;10487;53.320;8.672;2023-02-14T10:24:13;103260.63;;;4.39;64.56
20656;BME280;10487;53.320;8.672;2023-02-14T10:30:36;103263.00;;;4.66;64.48
20656;BME280;10487;53.320;8.672;2023-02-14T10:33:41;103262.84;;;4.80;64.42
20656;BME280;10487;53.320;8.672;2023-02-14T10:47:22;103252.63;;;5.30;64.39
20656;BME280;10487;53.320;8.672;2023-02-14T10:54:20;103245.31;;;5.51;64.17
20656;BME280;10487;53.320;8.672;2023-02-14T10:57:27;103238.09;;;5.62;64.33
20656;BME280;10487;53.320;8.672;2023-02-14T11:00:33;103237.00;;;5.75;64.37
20656;BME280;10487;53.320;8.672;2023-02-14T11:03:38;103226.19;;;5.90;64.26
20656;BME280;10487;53.320;8.672;2023-02-14T11:06:44;103234.75;;;6.07;64.29
20656;BME280;10487;53.320;8.672;2023-02-14T11:09:49;103231.81;;;6.25;64.41
20656;BME280;10487;53.320;8.672;2023-02-14T11:12:51;103234.16;;;6.43;64.24
20656;BME280;10487;53.320;8.672;2023-02-14T11:15:58;103226.78;;;6.60;64.07
20656;BME280;10487;53.320;8.672;2023-02-14T11:19:26;103221.22;;;6.76;64.23
20656;BME280;10487;53.320;8.672;2023-02-14T11:22:29;103212.09;;;6.89;64.05
20656;BME280;10487;53.320;8.672;2023-02-14T11:25:31;103218.09;;;6.98;64.14
20656;BME280;10487;53.320;8.672;2023-02-14T11:28:41;103211.72;;;7.07;64.06
20656;BME280;10487;53.320;8.672;2023-02-14T11:31:46;103207.94;;;7.20;64.05
20656;BME280;10487;53.320;8.672;2023-02-14T11:34:59;103205.84;;;7.34;64.03
20656;BME280;10487;53.320;8.672;2023-02-14T11:38:04;103198.59;;;7.42;63.84
20656;BME280;10487;53.320;8.672;2023-02-14T11:41:09;103198.38;;;7.51;63.85
20656;BME280;10487;53.320;8.672;2023-02-14T11:44:15;103192.78;;;7.65;64.17
20656;BME280;10487;53.320;8.672;2023-02-14T11:47:28;103184.50;;;7.77;63.96
20656;BME280;10487;53.320;8.672;2023-02-14T11:50:30;103190.47;;;7.86;64.05
20656;BME280;10487;53.320;8.672;2023-02-14T11:56:52;103173.38;;;7.96;63.67
20656;BME280;10487;53.320;8.672;2023-02-14T11:59:57;103170.59;;;8.01;63.74
20656;BME280;10487;53.320;8.672;2023-02-14T12:03:01;103172.28;;;8.07;63.95
20656;BME280;10487;53.320;8.672;2023-02-14T12:06:05;103165.97;;;8.11;63.67
20656;BME280;10487;53.320;8.672;2023-02-14T12:12:24;103168.41;;;8.20;63.71
20656;BME280;10487;53.320;8.672;2023-02-14T12:15:48;103159.50;;;8.21;63.77
20656;BME280;10487;53.320;8.672;2023-02-14T12:18:58;103162.09;;;8.24;63.67
20656;BME280;10487;53.320;8.672;2023-02-14T12:22:04;103150.56;;;8.23;63.54
20656;BME280;10487;53.320;8.672;2023-02-14T12:25:13;103151.38;;;8.27;63.73
20656;BME280;10487;53.320;8.672;2023-02-14T12:28:23;103148.72;;;8.27;63.77
20656;BME280;10487;53.320;8.672;2023-02-14T12:31:28;103141.63;;;8.26;63.46
20656;BME280;10487;53.320;8.672;2023-02-14T12:34:30;103138.06;;;8.27;63.45
20656;BME280;10487;53.320;8.672;2023-02-14T13:11:26;103071.97;;;8.44;63.33
20656;BME280;10487;53.320;8.672;2023-02-14T13:14:56;103079.00;;;8.45;63.30
20656;BME280;10487;53.320;8.672;2023-02-14T13:21:09;103064.66;;;8.50;63.25
20656;BME280;10487;53.320;8.672;2023-02-14T13:24:24;103077.06;;;8.51;63.04
20656;BME280;10487;53.320;8.672;2023-02-14T13:27:32;103061.13;;;8.50;63.09
20656;BME280;10487;53.320;8.672;2023-02-14T13:30:35;103058.44;;;8.51;63.11
20656;BME280;10487;53.320;8.672;2023-02-14T13:33:41;103057.50;;;8.52;63.19
20656;BME280;10487;53.320;8.672;2023-02-14T13:36:44;103050.31;;;8.56;63.07
20656;BME280;10487;53.320;8.672;2023-02-14T13:40:05;103047.66;;;8.56;63.11
20656;BME280;10487;53.320;8.672;2023-02-14T13:43:07;103044.16;;;8.54;62.91
20656;BME280;10487;53.320;8.672;2023-02-14T13:46:08;103044.25;;;8.51;62.92
20656;BME280;10487;53.320;8.672;2023-02-14T13:49:29;103033.69;;;8.48;62.94
20656;BME280;10487;53.320;8.672;2023-02-14T13:52:46;103031.22;;;8.42;62.84
20656;BME280;10487;53.320;8.672;2023-02-14T13:55:48;103028.66;;;8.37;63.01
20656;BME280;10487;53.320;8.672;2023-02-14T13:58:57;103030.50;;;8.35;62.90
20656;BME280;10487;53.320;8.672;2023-02-14T14:08:43;103019.22;;;8.27;62.88
20656;BME280;10487;53.320;8.672;2023-02-14T14:15:11;103016.16;;;8.41;63.46
20656;BME280;10487;53.320;8.672;2023-02-14T14:24:39;103015.66;;;8.57;62.65
20656;BME280;10487;53.320;8.672;2023-02-14T14:27:44;103016.81;;;8.49;62.60
20656;BME280;10487;53.320;8.672;2023-02-14T14:30:46;103011.66;;;8.43;62.98
20656;BME280;10487;53.320;8.672;2023-02-14T14:33:57;103007.44;;;8.36;62.96
20656;BME280;10487;53.320;8.672;2023-02-14T14:37:06;103008.47;;;8.32;62.81
20656;BME280;10487;53.320;8.672;2023-02-14T14:40:20;103010.28;;;8.30;63.11
20656;BME280;10487;53.320;8.672;2023-02-14T14:46:27;103003.91;;;8.35;63.13
20656;BME280;10487;53.320;8.672;2023-02-14T14:49:30;103004.00;;;8.32;62.93
20656;BME280;10487;53.320;8.672;2023-02-14T14:52:35;103004.00;;;8.32;62.85
20656;BME280;10487;53.320;8.672;2023-02-14T14:55:44;103006.75;;;8.29;62.91
20656;BME280;10487;53.320;8.672;2023-02-14T14:58:46;102997.97;;;8.26;62.82
20656;BME280;10487;53.320;8.672;2023-02-14T15:01:49;102994.59;;;8.21;62.75
20656;BME280;10487;53.320;8.672;2023-02-14T15:04:51;102994.78;;;8.15;62.69
20656;BME280;10487;53.320;8.672;2023-02-14T15:07:53;103003.72;;;8.11;62.88
20656;BME280;10487;53.320;8.672;2023-02-14T15:11:10;102997.44;;;8.15;63.37
20656;BME280;10487;53.320;8.672;2023-02-14T15:14:20;102990.97;;;8.23;62.85
20656;BME280;10487;53.320;8.672;2023-02-14T15:17:27;102982.22;;;8.20;62.75
20656;BME280;10487;53.320;8.672;2023-02-14T15:20:30;102979.72;;;8.14;62.70
20656;BME280;10487;53.320;8.672;2023-02-14T15:23:31;102976.38;;;8.07;62.86
20656;BME280;10487;53.320;8.672;2023-02-14T15:26:34;102978.34;;;7.99;62.86
20656;BME280;10487;53.320;8.672;2023-02-14T15:29:36;102975.88;;;7.91;62.76
20656;BME280;10487;53.320;8.672;2023-02-14T15:32:37;102972.53;;;7.85;62.94
20656;BME280;10487;53.320;8.672;2023-02-14T15:35:40;102969.16;;;7.78;63.02
20656;BME280;10487;53.320;8.672;2023-02-14T15:38:42;102948.16;;;7.69;62.75
20656;BME280;10487;53.320;8.672;2023-02-14T15:41:44;102955.44;;;7.61;62.95
20656;BME280;10487;53.320;8.672;2023-02-14T15:44:46;102947.69;;;7.54;62.85
20656;BME280;10487;53.320;8.672;2023-02-14T15:47:50;102956.66;;;7.48;62.95
20656;BME280;10487;53.320;8.672;2023-02-14T15:50:55;102949.84;;;7.40;62.81
20656;BME280;10487;53.320;8.672;2023-02-14T15:54:01;102946.50;;;7.31;62.90
20656;BME280;10487;53.320;8.672;2023-02-14T15:57:05;102946.63;;;7.27;62.94
20656;BME280;10487;53.320;8.672;2023-02-14T16:00:15;102947.69;;;7.20;62.74
20656;BME280;10487;53.320;8.672;2023-02-14T16:03:29;102946.09;;;7.13;63.16
20656;BME280;10487;53.320;8.672;2023-02-14T16:06:43;102942.69;;;7.08;63.10
20656;BME280;10487;53.320;8.672;2023-02-14T16:09:44;102939.34;;;7.00;62.93
20656;BME280;10487;53.320;8.672;2023-02-14T16:16:14;102942.31;;;7.23;62.98
20656;BME280;10487;53.320;8.672;2023-02-14T16:19:37;102939.91;;;7.12;62.85
20656;BME280;10487;53.320;8.672;2023-02-14T16:22:39;102940.22;;;7.00;62.99
20656;BME280;10487;53.320;8.672;2023-02-14T16:25:41;102943.13;;;6.90;62.95
20656;BME280;10487;53.320;8.672;2023-02-14T16:28:42;102945.13;;;6.80;63.08
20656;BME280;10487;53.320;8.672;2023-02-14T16:31:52;102944.47;;;6.71;63.02
20656;BME280;10487;53.320;8.672;2023-02-14T16:35:18;102935.78;;;6.62;63.03
20656;BME280;10487;53.320;8.672;2023-02-14T16:38:21;102942.25;;;6.51;63.16
20656;BME280;10487;53.320;8.672;2023-02-14T16:41:25;102934.47;;;6.42;63.07
20656;BME280;10487;53.320;8.672;2023-02-14T16:44:27;102942.53;;;6.37;63.15
20656;BME280;10487;53.320;8.672;2023-02-14T16:47:29;102931.19;;;6.31;63.16
20656;BME280;10487;53.320;8.672;2023-02-14T16:50:30;102934.00;;;6.23;63.14
20656;BME280;10487;53.320;8.672;2023-02-14T16:53:32;102943.88;;;6.15;63.17
20656;BME280;10487;53.320;8.672;2023-02-14T16:56:46;102936.13;;;6.06;62.96
20656;BME280;10487;53.320;8.672;2023-02-14T16:59:48;102943.31;;;6.01;63.17
20656;BME280;10487;53.320;8.672;2023-02-14T17:02:50;102937.22;;;5.96;63.22
20656;BME280;10487;53.320;8.672;2023-02-14T17:05:54;102939.97;;;5.91;62.99
20656;BME280;10487;53.320;8.672;2023-02-14T17:08:59;102941.84;;;5.85;63.17
20656;BME280;10487;53.320;8.672;2023-02-14T17:12:08;102948.13;;;5.81;63.05
20656;BME280;10487;53.320;8.672;2023-02-14T17:15:16;102940.28;;;5.75;62.95
20656;BME280;10487;53.320;8.672;2023-02-14T17:18:20;102943.06;;;5.69;62.90
20656;BME280;10487;53.320;8.672;2023-02-14T17:21:25;102941.44;;;5.62;63.12
20656;BME280;10487;53.320;8.672;2023-02-14T17:24:26;102930.88;;;5.59;63.14
20656;BME280;10487;53.320;8.672;2023-02-14T17:27:28;102938.00;;;5.55;63.01
20656;BME280;10487;53.320;8.672;2023-02-14T17:30:30;102939.91;;;5.47;63.01
20656;BME280;10487;53.320;8.672;2023-02-14T17:33:32;102945.31;;;5.41;62.68
20656;BME280;10487;53.320;8.672;2023-02-14T17:36:33;102934.00;;;5.33;63.03
20656;BME280;10487;53.320;8.672;2023-02-14T17:39:35;102933.19;;;5.29;62.85
20656;BME280;10487;53.320;8.672;2023-02-14T17:42:37;102930.59;;;5.25;62.88
20656;BME280;10487;53.320;8.672;2023-02-14T17:45:41;102931.66;;;5.15;62.58
20656;BME280;10487;53.320;8.672;2023-02-14T17:48:44;102933.53;;;5.05;62.75
20656;BME280;10487;53.320;8.672;2023-02-14T17:51:45;102931.91;;;4.98;62.83
20656;BME280;10487;53.320;8.672;2023-02-14T17:54:47;102928.50;;;4.90;62.75
20656;BME280;10487;53.320;8.672;2023-02-14T17:57:49;102924.19;;;4.83;62.83
20656;BME280;10487;53.320;8.672;2023-02-14T18:00:53;102925.19;;;4.76;62.72
20656;BME280;10487;53.320;8.672;2023-02-14T18:03:55;102921.81;;;4.66;62.87
20656;BME280;10487;53.320;8.672;2023-02-14T18:06:56;102919.28;;;4.59;62.88
20656;BME280;10487;53.320;8.672;2023-02-14T18:09:58;102918.50;;;4.51;62.88
20656;BME280;10487;53.320;8.672;2023-02-14T18:12:59;102917.75;;;4.44;62.91
20656;BME280;10487;53.320;8.672;2023-02-14T18:16:10;102916.94;;;4.38;62.93
20656;BME280;10487;53.320;8.672;2023-02-14T18:19:13;102915.28;;;4.32;62.96
20656;BME280;10487;53.320;8.672;2023-02-14T18:22:16;102903.88;;;4.26;62.79
20656;BME280;10487;53.320;8.672;2023-02-14T18:25:17;102908.34;;;4.22;62.83